createdAt,value
2019-02-20T00:00:42.021Z,7.64
2019-02-20T00:05:47.481Z,7.69
2019-02-20T00:10:52.901Z,7.77
2019-02-20T00:15:58.264Z,7.88
2019-02-20T00:21:03.638Z,8.00
2019-02-20T00:26:09.160Z,8.08
2019-02-20T00:31:14.599Z,8.12
2019-02-20T00:36:20.026Z,8.08
2019-02-20T00:41:25.495Z,8.01
2019-02-20T00:46:39.375Z,7.87
2019-02-20T00:52:06.143Z,7.72
2019-02-20T00:57:11.588Z,7.57
2019-02-20T01:02:17.045Z,7.48
2019-02-20T01:07:22.587Z,7.39
2019-02-20T01:12:27.965Z,7.31
2019-02-20T01:17:33.299Z,7.20
2019-02-20T01:22:38.773Z,7.12
2019-02-20T01:27:44.148Z,7.04
2019-02-20T01:32:49.592Z,6.97
2019-02-20T01:37:55.176Z,6.92
2019-02-20T01:43:00.598Z,6.89
2019-02-20T01:48:06.018Z,6.88
2019-02-20T01:53:11.401Z,6.87
2019-02-20T01:58:16.746Z,6.86
2019-02-20T02:03:22.353Z,6.83
2019-02-20T02:08:27.823Z,6.78
2019-02-20T02:13:33.359Z,6.75
2019-02-20T02:18:38.723Z,6.71
2019-02-20T02:23:44.156Z,6.70
2019-02-20T02:28:49.585Z,6.69
2019-02-20T02:33:54.963Z,6.67
2019-02-20T02:39:00.365Z,6.66
2019-02-20T02:44:05.851Z,6.65
2019-02-20T02:49:11.231Z,6.66
2019-02-20T02:54:16.595Z,6.69
2019-02-20T02:59:22.073Z,6.78
2019-02-20T03:04:27.530Z,6.90
2019-02-20T03:09:32.938Z,7.01
2019-02-20T03:14:38.292Z,7.09
2019-02-20T03:19:43.773Z,7.13
2019-02-20T03:24:49.411Z,7.17
2019-02-20T03:29:54.822Z,7.22
2019-02-20T03:35:00.290Z,7.26
2019-02-20T03:40:06.181Z,7.29
2019-02-20T03:45:11.667Z,7.32
2019-02-20T03:50:17.133Z,7.31
2019-02-20T03:55:22.503Z,7.30
2019-02-20T04:00:27.900Z,7.29
2019-02-20T04:05:33.362Z,7.32
2019-02-20T04:10:38.774Z,7.39
2019-02-20T04:15:44.300Z,7.51
2019-02-20T04:20:49.709Z,7.64
2019-02-20T04:25:55.123Z,7.77
2019-02-20T04:31:00.532Z,7.85
2019-02-20T04:36:05.946Z,7.93
2019-02-20T04:41:11.452Z,7.99
2019-02-20T04:46:16.845Z,8.04
2019-02-20T04:51:22.276Z,8.07
2019-02-20T04:56:27.673Z,8.10
2019-02-20T05:01:33.121Z,8.09
2019-02-20T05:06:38.626Z,8.09
2019-02-20T05:11:44.350Z,8.12
2019-02-20T05:16:49.849Z,8.15
2019-02-20T05:21:55.270Z,8.17
2019-02-20T05:27:00.783Z,8.19
2019-02-20T05:32:06.204Z,8.22
2019-02-20T05:37:11.711Z,8.26
2019-02-20T05:42:17.115Z,8.26
2019-02-20T05:47:22.479Z,8.23
2019-02-20T05:52:28.003Z,8.16
2019-02-20T05:57:33.404Z,8.05
2019-02-20T06:02:38.893Z,7.91
2019-02-20T06:07:44.451Z,7.77
2019-02-20T06:12:49.857Z,7.65
2019-02-20T06:17:55.216Z,7.61
2019-02-20T06:23:00.714Z,7.58
2019-02-20T06:28:06.087Z,7.55
2019-02-20T06:33:11.510Z,7.45
2019-02-20T06:38:16.883Z,7.37
2019-02-20T06:43:22.301Z,7.29
2019-02-20T06:48:27.947Z,7.22
2019-02-20T06:53:33.437Z,7.19
2019-02-20T06:58:38.893Z,7.19
2019-02-20T07:03:44.325Z,7.28
2019-02-20T07:10:00.781Z,7.38
2019-02-20T07:16:11.881Z,7.57
2019-02-20T07:22:27.205Z,7.88
2019-02-20T07:28:27.326Z,8.35
2019-02-20T07:33:32.999Z,8.95
2019-02-20T07:38:38.803Z,9.55
2019-02-20T07:43:44.309Z,10.06
2019-02-20T07:48:49.701Z,10.66
2019-02-20T07:53:55.092Z,10.90
2019-02-20T07:59:00.599Z,11.16
2019-02-20T08:04:06.101Z,11.93
2019-02-20T08:09:11.551Z,13.67
2019-02-20T08:14:17.094Z,15.32
2019-02-20T08:19:22.551Z,15.68
2019-02-20T08:24:27.932Z,16.42
2019-02-20T08:29:33.391Z,18.18
2019-02-20T08:34:38.863Z,19.70
2019-02-20T08:39:44.335Z,21.21
2019-02-20T08:44:49.861Z,23.20
2019-02-20T08:49:55.357Z,25.44
2019-02-20T08:55:00.842Z,25.38
2019-02-20T09:00:07.225Z,24.93
2019-02-20T09:05:12.779Z,23.77
2019-02-20T09:10:18.494Z,22.62
2019-02-20T09:15:23.916Z,22.57
2019-02-20T09:20:29.336Z,23.46
2019-02-20T09:25:41.387Z,24.66
2019-02-20T09:30:41.956Z,25.03
2019-02-20T09:35:47.458Z,25.08
2019-02-20T09:40:52.861Z,24.63
2019-02-20T09:45:58.355Z,24.75
2019-02-20T09:51:03.807Z,24.98
2019-02-20T09:56:09.239Z,25.42
2019-02-20T10:01:14.719Z,26.18
2019-02-20T10:06:20.140Z,26.19
2019-02-20T10:11:25.521Z,24.50
2019-02-20T10:16:32.417Z,22.89
2019-02-20T10:21:37.805Z,21.34
2019-02-20T10:26:43.246Z,20.03
2019-02-20T10:31:49.225Z,19.06
2019-02-20T10:36:54.747Z,18.29
2019-02-20T10:42:00.216Z,17.90
2019-02-20T10:47:05.633Z,17.72
2019-02-20T10:52:11.183Z,17.78
2019-02-20T10:57:16.541Z,17.57
2019-02-20T11:02:21.922Z,17.20
2019-02-20T11:07:27.334Z,16.95
2019-02-20T11:12:32.991Z,16.61
2019-02-20T11:17:38.607Z,16.66
2019-02-20T11:22:44.026Z,16.92
2019-02-20T11:27:49.586Z,17.31
2019-02-20T11:32:55.024Z,17.56
2019-02-20T11:38:00.683Z,17.64
2019-02-20T11:43:06.343Z,17.51
2019-02-20T11:48:11.789Z,17.34
2019-02-20T11:53:17.188Z,16.97
2019-02-20T11:58:22.667Z,16.80
2019-02-20T12:03:29.931Z,16.81
2019-02-20T12:08:35.399Z,16.98
2019-02-20T12:13:40.791Z,17.05
2019-02-20T12:18:46.290Z,17.15
2019-02-20T12:23:51.823Z,17.16
2019-02-20T12:28:57.438Z,17.14
2019-02-20T12:34:03.050Z,17.16
2019-02-20T12:39:08.707Z,17.11
2019-02-20T12:44:14.113Z,16.99
2019-02-20T12:49:19.605Z,16.88
2019-02-20T12:54:24.961Z,16.76
2019-02-20T12:59:30.466Z,16.72
2019-02-20T13:04:36.010Z,16.81
2019-02-20T13:09:41.381Z,16.88
2019-02-20T13:14:46.797Z,16.92
2019-02-20T13:19:52.408Z,16.92
2019-02-20T13:24:58.044Z,16.91
2019-02-20T13:30:03.632Z,16.91
2019-02-20T13:35:09.249Z,16.94
2019-02-20T13:40:14.660Z,16.97
2019-02-20T13:45:20.026Z,16.81
2019-02-20T13:50:25.568Z,16.61
2019-02-20T13:55:34.497Z,16.38
2019-02-20T14:00:37.950Z,16.25
2019-02-20T14:05:43.473Z,16.16
2019-02-20T14:10:49.192Z,16.14
2019-02-20T14:15:56.714Z,16.19
2019-02-20T14:21:02.203Z,16.22
2019-02-20T14:26:07.769Z,16.23
2019-02-20T14:31:13.445Z,16.27
2019-02-20T14:36:19.126Z,16.29
2019-02-20T14:41:24.653Z,16.22
2019-02-20T14:46:30.153Z,16.15
2019-02-20T14:51:35.566Z,16.10
2019-02-20T14:56:41.130Z,15.99
2019-02-20T15:01:46.564Z,15.89
2019-02-20T15:06:51.958Z,15.75
2019-02-20T15:11:57.429Z,15.62
2019-02-20T15:17:02.803Z,15.51
2019-02-20T15:22:08.469Z,15.36
2019-02-20T15:27:13.966Z,15.23
2019-02-20T15:32:19.344Z,15.12
2019-02-20T15:37:24.941Z,15.02
2019-02-20T15:42:30.497Z,14.95
2019-02-20T15:47:35.873Z,14.87
2019-02-20T15:52:41.239Z,14.83
2019-02-20T15:57:46.897Z,14.80
2019-02-20T16:02:52.451Z,14.74
2019-02-20T16:07:57.935Z,14.63
2019-02-20T16:13:03.300Z,14.56
2019-02-20T16:18:09.127Z,14.47
2019-02-20T16:23:14.578Z,14.36
2019-02-20T16:28:20.181Z,14.26
2019-02-20T16:33:25.691Z,14.16
2019-02-20T16:38:31.114Z,14.12
2019-02-20T16:43:36.698Z,14.06
2019-02-20T16:48:43.222Z,13.96
2019-02-20T16:53:48.671Z,13.84
2019-02-20T16:58:54.099Z,13.67
2019-02-20T17:04:01.639Z,13.48
2019-02-20T17:09:12.510Z,13.32
2019-02-20T17:14:22.863Z,13.17
2019-02-20T17:19:32.556Z,13.04
2019-02-20T17:24:43.450Z,12.91
2019-02-20T17:29:53.724Z,12.79
2019-02-20T17:35:00.638Z,12.68
2019-02-20T17:40:08.594Z,12.58
2019-02-20T17:45:14.490Z,12.47
2019-02-20T17:50:20.388Z,12.33
2019-02-20T17:55:25.905Z,12.20
2019-02-20T18:00:32.103Z,12.08
2019-02-20T18:05:37.487Z,11.94
2019-02-20T18:10:43.000Z,11.79
2019-02-20T18:15:48.629Z,11.61
2019-02-20T18:20:54.221Z,11.44
2019-02-20T18:25:59.857Z,11.30
2019-02-20T18:31:05.507Z,11.18
2019-02-20T18:36:11.738Z,11.05
2019-02-20T18:41:17.257Z,10.93
2019-02-20T18:46:22.827Z,10.83
2019-02-20T18:51:28.245Z,10.71
2019-02-20T18:56:34.223Z,10.62
2019-02-20T19:01:39.882Z,10.54
2019-02-20T19:06:45.373Z,10.46
2019-02-20T19:12:46.785Z,10.36
2019-02-20T19:18:44.666Z,10.27
2019-02-20T19:25:26.550Z,10.16
2019-02-20T19:31:35.812Z,10.05
2019-02-20T19:37:28.855Z,9.97
2019-02-20T19:43:30.817Z,9.89
2019-02-20T19:49:22.531Z,9.82
2019-02-20T19:54:50.326Z,9.74
2019-02-20T20:01:04.601Z,9.70
2019-02-20T20:06:41.648Z,9.65
2019-02-20T20:12:39.632Z,9.61
2019-02-20T20:18:52.439Z,9.55
2019-02-20T20:24:39.307Z,9.49
2019-02-20T20:30:29.189Z,9.44
2019-02-20T20:36:15.610Z,9.41
2019-02-20T20:42:39.647Z,9.36
2019-02-20T20:48:14.692Z,9.28
2019-02-20T20:54:21.944Z,9.23
2019-02-20T21:00:20.707Z,9.20
2019-02-20T21:06:18.324Z,9.22
2019-02-20T21:12:21.952Z,9.21
2019-02-20T21:18:48.305Z,9.16
2019-02-20T21:25:33.097Z,9.10
2019-02-20T21:31:13.287Z,9.05
2019-02-20T21:36:57.898Z,9.04
2019-02-20T21:42:56.414Z,9.03
2019-02-20T21:48:52.113Z,9.00
2019-02-20T21:54:37.271Z,8.97
2019-02-20T22:00:35.864Z,8.95
2019-02-20T22:06:33.438Z,8.94
2019-02-20T22:12:15.284Z,8.92
2019-02-20T22:18:14.842Z,8.89
2019-02-20T22:24:05.900Z,8.86
2019-02-20T22:29:52.379Z,8.83
2019-02-20T22:35:55.773Z,8.79
2019-02-20T22:42:22.466Z,8.74
2019-02-20T22:48:31.657Z,8.69
2019-02-20T22:54:05.521Z,8.64
2019-02-20T23:00:06.578Z,8.60
2019-02-20T23:06:14.967Z,8.55
2019-02-20T23:12:02.435Z,8.48
2019-02-20T23:17:07.964Z,8.43
2019-02-20T23:22:13.531Z,8.46
2019-02-20T23:27:19.070Z,8.62
2019-02-20T23:32:24.535Z,8.84
2019-02-20T23:37:30.084Z,9.04
2019-02-20T23:42:35.583Z,9.18
2019-02-20T23:47:41.025Z,9.23
2019-02-20T23:52:46.557Z,9.26
2019-02-20T23:57:52.002Z,9.33
